BAW320L EGLL-LFPG
Flight info
| Callsign | BAW320L |
|---|---|
| Flight time | 0h 40m |
| Altitude | 25000 |
| Route | MODMI M185 MID UL612 BOGNA DCT HARDY UM605 BIBAX |
| Aircraft | A320/M-SDE3FGHIRWY/LB1 |
Departure
| Time | 2026-05-04 22:14 |
|---|---|
| Airport | London Heathrow Airport (EGLL) |
Arrival
| Time | 2026-05-04 22:55 |
|---|---|
| Airport | Charles de Gaulle International Airport (LFPG) |
| Time | Latitude | Longitude | Altitude | Speed | Heading |
|---|---|---|---|---|---|
| 2026-05-04 21:38 | 51.47087 | -0.48577 | 88 ft | 0 kts | 270° |
| 2026-05-04 22:03 | 51.47087 | -0.48562 | 87 ft | 2 kts | 261° |
| 2026-05-04 22:03 | 51.47090 | -0.48536 | 88 ft | 2 kts | 253° |
| 2026-05-04 22:03 | 51.47096 | -0.48511 | 90 ft | 2 kts | 237° |
| 2026-05-04 22:04 | 51.47107 | -0.48491 | 91 ft | 2 kts | 215° |
| 2026-05-04 22:04 | 51.47121 | -0.48479 | 92 ft | 2 kts | 193° |
| 2026-05-04 22:04 | 51.47136 | -0.48475 | 90 ft | 1 kts | 180° |
| 2026-05-04 22:04 | 51.47139 | -0.48475 | 90 ft | 0 kts | 180° |
| 2026-05-04 22:07 | 51.47129 | -0.48475 | 90 ft | 6 kts | 180° |
| 2026-05-04 22:07 | 51.47076 | -0.48474 | 88 ft | 9 kts | 180° |
| 2026-05-04 22:07 | 51.47017 | -0.48474 | 87 ft | 8 kts | 180° |
| 2026-05-04 22:08 | 51.46964 | -0.48472 | 87 ft | 7 kts | 178° |
| 2026-05-04 22:08 | 51.46919 | -0.48470 | 91 ft | 6 kts | 179° |
| 2026-05-04 22:08 | 51.46882 | -0.48470 | 89 ft | 4 kts | 181° |
| 2026-05-04 22:08 | 51.46854 | -0.48470 | 88 ft | 5 kts | 180° |
| 2026-05-04 22:09 | 51.46830 | -0.48470 | 88 ft | 0 kts | 180° |
| 2026-05-04 22:10 | 51.46816 | -0.48470 | 90 ft | 3 kts | 180° |
| 2026-05-04 22:10 | 51.46762 | -0.48470 | 88 ft | 11 kts | 180° |
| 2026-05-04 22:11 | 51.46713 | -0.48469 | 88 ft | 6 kts | 179° |
| 2026-05-04 22:11 | 51.46674 | -0.48469 | 88 ft | 5 kts | 189° |
| 2026-05-04 22:11 | 51.46654 | -0.48544 | 90 ft | 12 kts | 262° |
| 2026-05-04 22:11 | 51.46651 | -0.48683 | 87 ft | 11 kts | 267° |
| 2026-05-04 22:12 | 51.46604 | -0.48766 | 87 ft | 11 kts | 199° |
| 2026-05-04 22:12 | 51.46529 | -0.48788 | 85 ft | 10 kts | 176° |
| 2026-05-04 22:12 | 51.46486 | -0.48739 | 90 ft | 6 kts | 127° |
| 2026-05-04 22:12 | 51.46475 | -0.48676 | 86 ft | 6 kts | 93° |
| 2026-05-04 22:13 | 51.46477 | -0.48593 | 86 ft | 0 kts | 89° |
| 2026-05-04 22:13 | 51.46477 | -0.48568 | 86 ft | 12 kts | 88° |
| 2026-05-04 22:13 | 51.46481 | -0.48124 | 85 ft | 74 kts | 89° |
| 2026-05-04 22:14 | 51.46481 | -0.46960 | 86 ft | 132 kts | 89° |
| 2026-05-04 22:14 | 51.46478 | -0.45268 | 228 ft | 164 kts | 88° |
| 2026-05-04 22:14 | 51.46493 | -0.43370 | 685 ft | 178 kts | 86° |
| 2026-05-04 22:14 | 51.46359 | -0.41362 | 1385 ft | 183 kts | 111° |
| 2026-05-04 22:15 | 51.45666 | -0.39574 | 1971 ft | 197 kts | 123° |
| 2026-05-04 22:15 | 51.44681 | -0.37940 | 2499 ft | 214 kts | 150° |
| 2026-05-04 22:15 | 51.43234 | -0.37098 | 3032 ft | 230 kts | 161° |
| 2026-05-04 22:15 | 51.41649 | -0.36306 | 3546 ft | 247 kts | 161° |
| 2026-05-04 22:16 | 51.39908 | -0.35808 | 4106 ft | 263 kts | 185° |
| 2026-05-04 22:16 | 51.38155 | -0.36673 | 4937 ft | 267 kts | 208° |
| 2026-05-04 22:16 | 51.36497 | -0.38063 | 5692 ft | 271 kts | 208° |
| 2026-05-04 22:16 | 51.34824 | -0.39453 | 5936 ft | 271 kts | 208° |
| 2026-05-04 22:17 | 51.33152 | -0.40832 | 6002 ft | 270 kts | 208° |
| 2026-05-04 22:17 | 51.31478 | -0.42204 | 6008 ft | 270 kts | 207° |
| 2026-05-04 22:17 | 51.29795 | -0.43541 | 6008 ft | 271 kts | 206° |
| 2026-05-04 22:17 | 51.28101 | -0.44865 | 6006 ft | 271 kts | 206° |
| 2026-05-04 22:18 | 51.26405 | -0.46190 | 5990 ft | 271 kts | 206° |
| 2026-05-04 22:18 | 51.24717 | -0.47523 | 5991 ft | 271 kts | 206° |
| 2026-05-04 22:18 | 51.23027 | -0.48866 | 5989 ft | 271 kts | 206° |
| 2026-05-04 22:18 | 51.21332 | -0.50197 | 5992 ft | 271 kts | 206° |
| 2026-05-04 22:19 | 51.19640 | -0.51509 | 6411 ft | 272 kts | 206° |
| 2026-05-04 22:19 | 51.17933 | -0.52831 | 7232 ft | 274 kts | 206° |
| 2026-05-04 22:19 | 51.16207 | -0.54165 | 8083 ft | 277 kts | 206° |
| 2026-05-04 22:19 | 51.14462 | -0.55509 | 8927 ft | 280 kts | 206° |
| 2026-05-04 22:20 | 51.12700 | -0.56864 | 9766 ft | 283 kts | 206° |
| 2026-05-04 22:20 | 51.10908 | -0.58241 | 10412 ft | 292 kts | 206° |
| 2026-05-04 22:20 | 51.09002 | -0.59600 | 10815 ft | 309 kts | 198° |
| 2026-05-04 22:20 | 51.06853 | -0.60332 | 11207 ft | 324 kts | 184° |
| 2026-05-04 22:21 | 51.04561 | -0.60154 | 11690 ft | 336 kts | 169° |
| 2026-05-04 22:21 | 51.02330 | -0.59020 | 12380 ft | 340 kts | 154° |
| 2026-05-04 22:21 | 51.00304 | -0.57067 | 13103 ft | 343 kts | 146° |
| 2026-05-04 22:21 | 50.98313 | -0.54932 | 13815 ft | 347 kts | 146° |
| 2026-05-04 22:22 | 50.96336 | -0.52713 | 14444 ft | 350 kts | 139° |
| 2026-05-04 22:22 | 50.94695 | -0.49854 | 15068 ft | 353 kts | 129° |
| 2026-05-04 22:22 | 50.93137 | -0.46820 | 15674 ft | 357 kts | 129° |
| 2026-05-04 22:22 | 50.91593 | -0.43788 | 16276 ft | 360 kts | 129° |
| 2026-05-04 22:23 | 50.90014 | -0.40684 | 16881 ft | 363 kts | 129° |
| 2026-05-04 22:23 | 50.88420 | -0.37558 | 17477 ft | 367 kts | 129° |
| 2026-05-04 22:23 | 50.86805 | -0.34404 | 18082 ft | 370 kts | 130° |
| 2026-05-04 22:23 | 50.85174 | -0.31231 | 18620 ft | 374 kts | 130° |
| 2026-05-04 22:24 | 50.83523 | -0.28031 | 19164 ft | 376 kts | 130° |
| 2026-05-04 22:24 | 50.81860 | -0.24814 | 19690 ft | 379 kts | 130° |
| 2026-05-04 22:24 | 50.80183 | -0.21574 | 20224 ft | 382 kts | 130° |
| 2026-05-04 22:24 | 50.78496 | -0.18315 | 20761 ft | 385 kts | 130° |
| 2026-05-04 22:25 | 50.76795 | -0.15032 | 21290 ft | 387 kts | 131° |
| 2026-05-04 22:25 | 50.75081 | -0.11731 | 21816 ft | 390 kts | 131° |
| 2026-05-04 22:25 | 50.73358 | -0.08411 | 22333 ft | 393 kts | 131° |
| 2026-05-04 22:25 | 50.71621 | -0.05059 | 22844 ft | 395 kts | 131° |
| 2026-05-04 22:26 | 50.69879 | -0.01699 | 23336 ft | 398 kts | 131° |
| 2026-05-04 22:26 | 50.68117 | 0.01694 | 23779 ft | 401 kts | 131° |
| 2026-05-04 22:26 | 50.66344 | 0.05094 | 24172 ft | 403 kts | 132° |
| 2026-05-04 22:26 | 50.64551 | 0.08516 | 24541 ft | 406 kts | 132° |
| 2026-05-04 22:27 | 50.62749 | 0.11953 | 24902 ft | 408 kts | 132° |
| 2026-05-04 22:27 | 50.60942 | 0.15402 | 25008 ft | 406 kts | 132° |
| 2026-05-04 22:27 | 50.59173 | 0.18786 | 25024 ft | 399 kts | 132° |
| 2026-05-04 22:27 | 50.57409 | 0.22155 | 25029 ft | 399 kts | 132° |
| 2026-05-04 22:28 | 50.55644 | 0.25519 | 25028 ft | 399 kts | 132° |
| 2026-05-04 22:28 | 50.53874 | 0.28878 | 25025 ft | 399 kts | 132° |
| 2026-05-04 22:28 | 50.52103 | 0.32232 | 25020 ft | 399 kts | 132° |
| 2026-05-04 22:28 | 50.50326 | 0.35591 | 25026 ft | 399 kts | 132° |
| 2026-05-04 22:29 | 50.48550 | 0.38944 | 25026 ft | 400 kts | 132° |
| 2026-05-04 22:29 | 50.46773 | 0.42301 | 25020 ft | 400 kts | 132° |
| 2026-05-04 22:29 | 50.44996 | 0.45659 | 25020 ft | 400 kts | 132° |
| 2026-05-04 22:29 | 50.43216 | 0.49017 | 25021 ft | 400 kts | 132° |
| 2026-05-04 22:30 | 50.41436 | 0.52371 | 25023 ft | 400 kts | 133° |
| 2026-05-04 22:30 | 50.39656 | 0.55719 | 25018 ft | 400 kts | 133° |
| 2026-05-04 22:30 | 50.37874 | 0.59065 | 25014 ft | 400 kts | 133° |
| 2026-05-04 22:30 | 50.36090 | 0.62405 | 25010 ft | 399 kts | 134° |
| 2026-05-04 22:31 | 50.34131 | 0.65459 | 25008 ft | 396 kts | 143° |
| 2026-05-04 22:31 | 50.31990 | 0.68159 | 25004 ft | 396 kts | 144° |
| 2026-05-04 22:31 | 50.29838 | 0.70849 | 25005 ft | 396 kts | 144° |
| 2026-05-04 22:31 | 50.27690 | 0.73529 | 25004 ft | 395 kts | 144° |
| 2026-05-04 22:32 | 50.25541 | 0.76211 | 25007 ft | 395 kts | 144° |
| 2026-05-04 22:32 | 50.23393 | 0.78893 | 25003 ft | 395 kts | 144° |
| 2026-05-04 22:32 | 50.21244 | 0.81576 | 25003 ft | 395 kts | 144° |
| 2026-05-04 22:32 | 50.19099 | 0.84257 | 25001 ft | 395 kts | 144° |
| 2026-05-04 22:33 | 50.16954 | 0.86936 | 24999 ft | 395 kts | 144° |
| 2026-05-04 22:33 | 50.15530 | 0.88710 | 25004 ft | 395 kts | 144° |
| 2026-05-04 22:33 | 50.13377 | 0.91382 | 24999 ft | 395 kts | 144° |
| 2026-05-04 22:33 | 50.10525 | 0.94915 | 25001 ft | 395 kts | 144° |
| 2026-05-04 22:34 | 50.08349 | 0.97603 | 24996 ft | 404 kts | 144° |
| 2026-05-04 22:34 | 50.06847 | 0.99396 | 24963 ft | 399 kts | 149° |
| 2026-05-04 22:34 | 50.04463 | 1.01416 | 24722 ft | 384 kts | 156° |
| 2026-05-04 22:34 | 50.02095 | 1.03218 | 24479 ft | 375 kts | 157° |
| 2026-05-04 22:35 | 49.99751 | 1.04987 | 24242 ft | 375 kts | 157° |
| 2026-05-04 22:35 | 49.97408 | 1.06750 | 24006 ft | 374 kts | 156° |
| 2026-05-04 22:35 | 49.95070 | 1.08514 | 23767 ft | 373 kts | 156° |
| 2026-05-04 22:35 | 49.92739 | 1.10276 | 23528 ft | 372 kts | 156° |
| 2026-05-04 22:36 | 49.90417 | 1.12034 | 23242 ft | 371 kts | 156° |
| 2026-05-04 22:36 | 49.88103 | 1.13784 | 22970 ft | 369 kts | 156° |
| 2026-05-04 22:36 | 49.85796 | 1.15526 | 22693 ft | 368 kts | 156° |
| 2026-05-04 22:36 | 49.83501 | 1.17255 | 22418 ft | 366 kts | 156° |
| 2026-05-04 22:37 | 49.81213 | 1.18974 | 22155 ft | 365 kts | 156° |
| 2026-05-04 22:37 | 49.78930 | 1.20684 | 21887 ft | 364 kts | 156° |
| 2026-05-04 22:37 | 49.76660 | 1.22387 | 21621 ft | 362 kts | 156° |
| 2026-05-04 22:37 | 49.74396 | 1.24086 | 21356 ft | 361 kts | 156° |
| 2026-05-04 22:38 | 49.72142 | 1.25776 | 21094 ft | 359 kts | 156° |
| 2026-05-04 22:38 | 49.69898 | 1.27458 | 20832 ft | 358 kts | 156° |
| 2026-05-04 22:38 | 49.67665 | 1.29131 | 20559 ft | 354 kts | 156° |
| 2026-05-04 22:38 | 49.65464 | 1.30775 | 20143 ft | 350 kts | 156° |
| 2026-05-04 22:39 | 49.63284 | 1.32400 | 19700 ft | 347 kts | 156° |
| 2026-05-04 22:39 | 49.61118 | 1.34016 | 19249 ft | 345 kts | 156° |
| 2026-05-04 22:39 | 49.58964 | 1.35625 | 18813 ft | 343 kts | 156° |
| 2026-05-04 22:39 | 49.56825 | 1.37220 | 18373 ft | 341 kts | 156° |
| 2026-05-04 22:40 | 49.54690 | 1.38806 | 17894 ft | 339 kts | 156° |
| 2026-05-04 22:40 | 49.52572 | 1.40377 | 17455 ft | 336 kts | 156° |
| 2026-05-04 22:40 | 49.50472 | 1.41936 | 17034 ft | 334 kts | 156° |
| 2026-05-04 22:40 | 49.48391 | 1.43481 | 16613 ft | 331 kts | 156° |
| 2026-05-04 22:41 | 49.46327 | 1.45015 | 16201 ft | 329 kts | 156° |
| 2026-05-04 22:41 | 49.44265 | 1.46543 | 15901 ft | 333 kts | 156° |
| 2026-05-04 22:41 | 49.42145 | 1.48107 | 14924 ft | 350 kts | 156° |
| 2026-05-04 22:41 | 49.39904 | 1.49754 | 14273 ft | 356 kts | 156° |
| 2026-05-04 22:42 | 49.37687 | 1.51388 | 13908 ft | 350 kts | 156° |
| 2026-05-04 22:42 | 49.35524 | 1.52984 | 13664 ft | 340 kts | 156° |
| 2026-05-04 22:42 | 49.33472 | 1.54697 | 13395 ft | 333 kts | 146° |
| 2026-05-04 22:42 | 49.31769 | 1.57049 | 13109 ft | 328 kts | 132° |
| 2026-05-04 22:43 | 49.30527 | 1.59956 | 12792 ft | 329 kts | 116° |
| 2026-05-04 22:43 | 49.29801 | 1.63287 | 12635 ft | 331 kts | 102° |
| 2026-05-04 22:43 | 49.29565 | 1.66798 | 12435 ft | 332 kts | 95° |
| 2026-05-04 22:43 | 49.29409 | 1.70318 | 12238 ft | 331 kts | 97° |
| 2026-05-04 22:44 | 49.28945 | 1.73741 | 12040 ft | 327 kts | 111° |
| 2026-05-04 22:44 | 49.27998 | 1.76841 | 11711 ft | 326 kts | 123° |
| 2026-05-04 22:44 | 49.26585 | 1.79557 | 11137 ft | 325 kts | 138° |
| 2026-05-04 22:44 | 49.24925 | 1.81927 | 10739 ft | 320 kts | 138° |
| 2026-05-04 22:45 | 49.23343 | 1.84226 | 10456 ft | 313 kts | 138° |
| 2026-05-04 22:45 | 49.20334 | 1.88670 | 9790 ft | 292 kts | 137° |
| 2026-05-04 22:45 | 49.18881 | 1.90812 | 9171 ft | 290 kts | 138° |
| 2026-05-04 22:46 | 49.17426 | 1.92947 | 8763 ft | 288 kts | 138° |
| 2026-05-04 22:46 | 49.15979 | 1.95063 | 8280 ft | 289 kts | 138° |
| 2026-05-04 22:46 | 49.14543 | 1.97162 | 7963 ft | 283 kts | 138° |
| 2026-05-04 22:46 | 49.13128 | 1.99236 | 7465 ft | 279 kts | 138° |
| 2026-05-04 22:47 | 49.11728 | 2.01284 | 6815 ft | 280 kts | 138° |
| 2026-05-04 22:47 | 49.10318 | 2.03334 | 6416 ft | 278 kts | 138° |
| 2026-05-04 22:47 | 49.08915 | 2.05371 | 5920 ft | 279 kts | 138° |
| 2026-05-04 22:47 | 49.07524 | 2.07391 | 5553 ft | 274 kts | 138° |
| 2026-05-04 22:48 | 49.06162 | 2.09369 | 5258 ft | 264 kts | 138° |
| 2026-05-04 22:48 | 49.04895 | 2.11212 | 5126 ft | 240 kts | 138° |
| 2026-05-04 22:48 | 49.03732 | 2.12903 | 4970 ft | 228 kts | 138° |
| 2026-05-04 22:48 | 49.02613 | 2.14526 | 4899 ft | 216 kts | 138° |
| 2026-05-04 22:49 | 49.01572 | 2.16081 | 4826 ft | 205 kts | 131° |
| 2026-05-04 22:49 | 49.00877 | 2.17939 | 4762 ft | 198 kts | 110° |
| 2026-05-04 22:49 | 49.00665 | 2.19983 | 4478 ft | 197 kts | 89° |
| 2026-05-04 22:49 | 49.00790 | 2.22050 | 4187 ft | 195 kts | 85° |
| 2026-05-04 22:50 | 49.00910 | 2.24072 | 3967 ft | 186 kts | 86° |
| 2026-05-04 22:50 | 49.01011 | 2.25969 | 3777 ft | 174 kts | 86° |
| 2026-05-04 22:50 | 49.01108 | 2.27751 | 3568 ft | 167 kts | 86° |
| 2026-05-04 22:50 | 49.01205 | 2.29500 | 3353 ft | 163 kts | 86° |
| 2026-05-04 22:51 | 49.01299 | 2.31187 | 3148 ft | 159 kts | 86° |
| 2026-05-04 22:51 | 49.01392 | 2.32857 | 2930 ft | 156 kts | 86° |
| 2026-05-04 22:51 | 49.01482 | 2.34471 | 2735 ft | 153 kts | 86° |
| 2026-05-04 22:51 | 49.01572 | 2.36090 | 2524 ft | 153 kts | 86° |
| 2026-05-04 22:52 | 49.01661 | 2.37704 | 2316 ft | 153 kts | 86° |
| 2026-05-04 22:52 | 49.01749 | 2.39299 | 2111 ft | 154 kts | 86° |
| 2026-05-04 22:52 | 49.01840 | 2.40941 | 1903 ft | 153 kts | 87° |
| 2026-05-04 22:52 | 49.01930 | 2.42562 | 1698 ft | 153 kts | 87° |
| 2026-05-04 22:53 | 49.02018 | 2.44174 | 1480 ft | 153 kts | 87° |
| 2026-05-04 22:53 | 49.02106 | 2.45773 | 1283 ft | 151 kts | 87° |
| 2026-05-04 22:53 | 49.02192 | 2.47355 | 1088 ft | 148 kts | 85° |
| 2026-05-04 22:53 | 49.02274 | 2.48902 | 895 ft | 145 kts | 84° |
| 2026-05-04 22:54 | 49.02347 | 2.50424 | 653 ft | 143 kts | 84° |
| 2026-05-04 22:54 | 49.02434 | 2.51924 | 458 ft | 142 kts | 83° |
| 2026-05-04 22:54 | 49.02520 | 2.53400 | 358 ft | 130 kts | 85° |
| 2026-05-04 22:54 | 49.02576 | 2.54386 | 353 ft | 60 kts | 84° |
| 2026-05-04 22:55 | 49.02603 | 2.54897 | 355 ft | 37 kts | 85° |
| 2026-05-04 22:55 | 49.02594 | 2.55173 | 364 ft | 21 kts | 102° |
| 2026-05-04 22:55 | 49.02545 | 2.55370 | 358 ft | 17 kts | 115° |
| 2026-05-04 22:55 | 49.02503 | 2.55503 | 361 ft | 0 kts | 116° |
| 2026-05-04 22:56 | 49.02499 | 2.55516 | 359 ft | 4 kts | 115° |
| 2026-05-04 22:56 | 49.02467 | 2.55589 | 362 ft | 12 kts | 143° |
| 2026-05-04 22:57 | 49.02394 | 2.55615 | 356 ft | 10 kts | 175° |
| 2026-05-04 22:57 | 49.02329 | 2.55622 | 355 ft | 9 kts | 174° |
| 2026-05-04 22:57 | 49.02268 | 2.55631 | 357 ft | 10 kts | 174° |
| 2026-05-04 22:57 | 49.02190 | 2.55639 | 364 ft | 14 kts | 175° |
| 2026-05-04 22:58 | 49.02091 | 2.55653 | 355 ft | 14 kts | 175° |
| 2026-05-04 22:58 | 49.02003 | 2.55664 | 355 ft | 12 kts | 174° |
| 2026-05-04 22:58 | 49.01925 | 2.55668 | 359 ft | 10 kts | 192° |
| 2026-05-04 22:58 | 49.01888 | 2.55587 | 363 ft | 12 kts | 261° |
| 2026-05-04 22:59 | 49.01878 | 2.55400 | 355 ft | 23 kts | 265° |
| 2026-05-04 22:59 | 49.01862 | 2.55105 | 358 ft | 33 kts | 264° |
| 2026-05-04 22:59 | 49.01846 | 2.54784 | 355 ft | 25 kts | 261° |
| 2026-05-04 22:59 | 49.01831 | 2.54515 | 364 ft | 26 kts | 265° |
| 2026-05-04 23:00 | 49.01815 | 2.54236 | 361 ft | 21 kts | 259° |
| 2026-05-04 23:00 | 49.01741 | 2.54114 | 358 ft | 15 kts | 211° |